Time;durP1;ratioP1;P1;durP2;ratioP2;P2;SDS_P1;SDS_P2;PMS_P1;PMS_P2;Temp;Humidity;BMP_temperature;BMP_pressure;BME280_temperature;BME280_humidity;BME280_pressure;Samples;Min_cycle;Max_cycle;Signal;HPM_P1;HPM_P2
2023/01/04 00:00:12;;;;;;;28.90;16.13;;;4.10;99.90;;;2.86;100.00;98568.34;5047920;28;20922;-76
2023/01/04 00:02:38;;;;;;;22.92;13.73;;;4.10;99.90;;;2.87;100.00;98569.16;5048228;28;20883;-76
2023/01/04 00:05:05;;;;;;;25.52;15.52;;;4.10;99.90;;;2.85;100.00;98574.59;5049031;28;20427;-76
2023/01/04 00:07:31;;;;;;;28.80;15.90;;;4.00;99.90;;;2.84;100.00;98569.53;5048974;28;20528;-76
2023/01/04 00:09:57;;;;;;;31.00;16.10;;;4.00;99.90;;;2.85;100.00;98564.13;5049083;28;20524;-76
2023/01/04 00:12:22;;;;;;;30.83;16.48;;;4.00;99.90;;;2.87;100.00;98561.31;5051953;28;20436;-75
2023/01/04 00:14:50;;;;;;;26.75;15.52;;;4.00;99.90;;;2.88;100.00;98555.94;5051279;28;20774;-75
2023/01/04 00:17:16;;;;;;;29.45;15.52;;;4.10;99.90;;;2.85;100.00;98558.91;5051458;28;20779;-75
2023/01/04 00:19:41;;;;;;;27.17;16.10;;;4.00;99.90;;;2.87;100.00;98566.56;5052839;28;20401;-75
2023/01/04 00:22:07;;;;;;;27.37;15.77;;;4.00;99.90;;;2.81;100.00;98559.41;5051954;28;20492;-75
2023/01/04 00:24:33;;;;;;;25.15;14.57;;;4.00;99.90;;;2.83;100.00;98555.63;5052316;28;20495;-75
2023/01/04 00:26:59;;;;;;;28.15;15.60;;;4.00;99.90;;;2.79;100.00;98550.91;5051281;28;20580;-75
2023/01/04 00:29:25;;;;;;;25.50;14.30;;;4.00;99.90;;;2.73;100.00;98545.41;5052809;28;20744;-75
2023/01/04 00:31:52;;;;;;;25.80;14.80;;;3.90;99.90;;;2.67;100.00;98533.03;5051917;28;20480;-75
2023/01/04 00:34:18;;;;;;;23.10;14.27;;;3.90;99.90;;;2.67;100.00;98527.78;5052074;28;20397;-75
2023/01/04 00:36:45;;;;;;;22.55;14.15;;;3.90;99.90;;;2.65;100.00;98521.91;5034193;28;20918;-75
2023/01/04 00:39:14;;;;;;;26.25;14.95;;;3.80;99.90;;;2.61;100.00;98517.22;5052359;28;20547;-75
2023/01/04 00:41:43;;;;;;;25.48;14.32;;;3.80;99.90;;;2.53;100.00;98515.47;5051675;28;20427;-75
2023/01/04 00:44:10;;;;;;;27.08;13.80;;;3.70;99.90;;;2.47;100.00;98512.72;5051919;28;20389;-75
2023/01/04 00:46:37;;;;;;;24.35;13.82;;;3.70;99.90;;;2.47;100.00;98515.34;5052073;28;20456;-75
2023/01/04 00:49:06;;;;;;;23.80;13.45;;;3.70;99.90;;;2.42;100.00;98496.72;5052295;28;20409;-76
2023/01/04 00:51:34;;;;;;;26.60;14.73;;;3.60;99.90;;;2.40;100.00;98496.94;5033635;28;20804;-75
2023/01/04 00:54:02;;;;;;;25.23;13.43;;;3.60;99.90;;;2.38;100.00;98498.06;5033747;28;20397;-75
2023/01/04 00:56:29;;;;;;;25.30;14.73;;;3.60;99.90;;;2.40;100.00;98491.69;5052012;28;20394;-75
2023/01/04 00:58:56;;;;;;;27.67;14.65;;;3.60;99.90;;;2.38;100.00;98498.06;5051948;28;20409;-75
2023/01/04 01:01:22;;;;;;;24.27;14.05;;;3.60;99.90;;;2.36;100.00;98492.19;5051468;28;20760;-75
2023/01/04 01:03:52;;;;;;;28.85;15.60;;;3.60;99.90;;;2.37;100.00;98486.81;5051442;28;20452;-75
2023/01/04 01:06:20;;;;;;;29.80;16.33;;;3.60;99.90;;;2.41;100.00;98495.91;5051699;28;20539;-75
2023/01/04 01:08:46;;;;;;;26.98;14.48;;;3.60;99.90;;;2.39;100.00;98491.88;5051781;28;20970;-75
2023/01/04 01:11:13;;;;;;;27.08;14.60;;;3.60;99.90;;;2.34;100.00;98501.03;5051236;28;20772;-75
2023/01/04 01:13:39;;;;;;;25.42;14.52;;;3.60;99.90;;;2.30;100.00;98499.75;5051223;28;20405;-75
2023/01/04 01:16:07;;;;;;;24.67;14.25;;;3.50;99.90;;;2.24;100.00;98495.22;5051664;28;20402;-75
2023/01/04 01:18:34;;;;;;;33.20;15.65;;;3.50;99.90;;;2.21;100.00;98486.88;5051468;28;20396;-75
2023/01/04 01:21:04;;;;;;;27.02;15.07;;;3.40;99.90;;;2.24;100.00;98497.81;5051885;28;20944;-75
2023/01/04 01:23:31;;;;;;;23.55;13.88;;;3.40;99.90;;;2.19;100.00;98494.88;5049886;28;20430;-75
2023/01/04 01:26:00;;;;;;;24.40;13.77;;;3.40;99.90;;;2.20;100.00;98486.06;5051453;28;21013;-75
2023/01/04 01:28:26;;;;;;;22.20;13.37;;;3.40;99.90;;;2.19;100.00;98496.69;5051513;28;20490;-75
2023/01/04 01:30:52;;;;;;;22.67;14.13;;;3.40;99.90;;;2.15;100.00;98501.44;5051417;28;20496;-75
2023/01/04 01:33:18;;;;;;;27.47;14.37;;;3.40;99.90;;;2.16;100.00;98508.31;5050195;28;20407;-75
2023/01/04 01:35:44;;;;;;;24.88;13.80;;;3.40;99.90;;;2.09;100.00;98506.53;5051288;28;20404;-75
2023/01/04 01:38:10;;;;;;;25.48;13.80;;;3.30;99.90;;;2.05;100.00;98508.66;5051378;28;20409;-75
2023/01/04 01:40:41;;;;;;;23.67;13.35;;;3.30;99.90;;;1.99;100.00;98517.19;5051245;28;20583;-75
2023/01/04 01:43:17;;;;;;;28.40;14.77;;;3.20;99.90;;;1.91;100.00;98512.81;5050075;28;20417;-75
2023/01/04 01:45:43;;;;;;;28.40;15.32;;;3.10;99.90;;;1.95;100.00;98521.91;5051221;28;20882;-76
2023/01/04 01:48:14;;;;;;;32.08;16.60;;;3.10;99.90;;;2.00;100.00;98518.81;5051106;28;20397;-76
2023/01/04 01:50:46;;;;;;;35.00;17.52;;;3.20;99.90;;;2.12;100.00;98514.84;5033099;28;20441;-76
2023/01/04 01:53:12;;;;;;;31.00;16.45;;;3.30;99.90;;;2.22;100.00;98507.63;5050054;28;20410;-76
2023/01/04 01:55:39;;;;;;;33.17;16.92;;;3.40;99.90;;;2.32;100.00;98516.06;5050825;28;20402;-76
2023/01/04 01:58:12;;;;;;;31.25;16.98;;;3.50;99.90;;;2.45;100.00;98504.25;5050895;28;20418;-76
2023/01/04 02:00:38;;;;;;;28.00;14.95;;;3.60;99.90;;;2.52;100.00;98505.19;5032900;28;20448;-76
2023/01/04 02:03:14;;;;;;;24.98;14.23;;;3.70;99.90;;;2.54;100.00;98503.22;5049765;28;20402;-76
2023/01/04 02:05:42;;;;;;;26.05;14.98;;;3.70;99.90;;;2.52;100.00;98499.94;5032862;28;20409;-75
2023/01/04 02:08:11;;;;;;;23.02;13.52;;;3.70;99.90;;;2.49;100.00;98500.28;5050845;28;20402;-75
2023/01/04 02:10:37;;;;;;;24.33;13.68;;;3.70;99.90;;;2.44;100.00;98502.59;5050739;28;20397;-76
2023/01/04 02:13:09;;;;;;;24.42;13.18;;;3.70;99.90;;;2.36;100.00;98506.06;5049640;28;20416;-76
2023/01/04 02:15:52;;;;;;;24.90;14.07;;;3.60;99.90;;;2.26;100.00;98495.00;5050594;28;20470;-75
2023/01/04 02:18:27;;;;;;;24.33;13.30;;;3.50;99.90;;;2.24;100.00;98502.22;5050658;28;20401;-75
2023/01/04 02:21:00;;;;;;;23.13;13.27;;;3.50;99.90;;;2.20;100.00;98499.13;5050616;28;20401;-76
2023/01/04 02:24:21;;;;;;;27.90;13.35;;;3.40;99.90;;;2.14;100.00;98493.78;5049637;28;20402;-76
2023/01/04 02:27:43;;;;;;;25.75;14.48;;;3.40;99.90;;;2.15;100.00;98488.38;5034606;28;20425;-76
2023/01/04 02:30:42;;;;;;;23.45;13.45;;;3.40;99.90;;;2.15;100.00;98484.97;5050349;28;20879;-76
2023/01/04 02:33:26;;;;;;;26.65;14.63;;;3.40;99.90;;;2.13;100.00;98479.09;5031325;28;20485;-76
2023/01/04 02:36:06;;;;;;;27.35;14.23;;;3.40;99.90;;;2.11;100.00;98478.44;5049721;28;20813;-76
2023/01/04 02:38:56;;;;;;;25.45;14.48;;;3.30;99.90;;;2.15;100.00;98477.94;5032377;28;20402;-76
2023/01/04 02:41:31;;;;;;;25.58;14.15;;;3.40;99.90;;;2.15;100.00;98477.13;5049853;28;20398;-76
2023/01/04 02:46:58;;;;;;;31.63;16.65;;;3.30;99.90;;;2.09;100.00;98467.38;5050209;28;20472;-76
2023/01/04 02:52:09;;;;;;;26.27;13.30;;;3.30;99.90;;;2.02;100.00;98464.63;5049467;28;20396;-76
2023/01/04 02:54:37;;;;;;;23.83;13.23;;;3.20;99.90;;;2.00;100.00;98466.59;5049602;28;20405;-76
2023/01/04 02:57:29;;;;;;;25.85;13.93;;;3.20;99.90;;;1.96;100.00;98460.06;5049955;28;20394;-76
2023/01/04 03:00:17;;;;;;;24.00;13.07;;;3.20;99.90;;;1.96;100.00;98452.22;5050055;28;20444;-76
2023/01/04 03:06:14;;;;;;;23.38;13.40;;;3.20;99.90;;;1.91;100.00;98451.94;5050014;28;20602;-76
2023/01/04 03:08:59;;;;;;;25.45;13.32;;;3.10;99.90;;;1.86;100.00;98439.41;5049812;28;20451;-76
2023/01/04 03:14:25;;;;;;;22.08;12.52;;;3.10;99.90;;;1.86;100.00;98428.97;5049501;28;21035;-75
2023/01/04 03:16:54;;;;;;;24.52;12.75;;;3.10;99.90;;;1.87;100.00;98432.38;5049742;28;20471;-75
2023/01/04 03:36:23;;;;;;;17.48;9.98;;;3.20;99.90;;;1.98;100.00;98421.53;5049907;28;20397;-76
2023/01/04 03:50:24;;;;;;;14.30;8.43;;;3.30;99.90;;;2.15;100.00;98423.09;5053338;28;20468;-76
2023/01/04 03:52:52;;;;;;;13.07;8.30;;;3.30;99.90;;;2.22;100.00;98428.44;5052471;28;20389;-76
2023/01/04 03:55:20;;;;;;;12.35;7.50;;;3.40;99.90;;;2.31;100.00;98415.16;5053087;28;20397;-76
2023/01/04 03:57:47;;;;;;;11.35;7.22;;;3.50;99.90;;;2.38;100.00;98417.91;5053191;28;20495;-75
2023/01/04 04:00:17;;;;;;;11.40;7.60;;;3.50;99.90;;;2.56;100.00;98410.56;5053158;28;20423;-76
2023/01/04 04:02:46;;;;;;;12.13;7.22;;;3.60;99.90;;;2.61;100.00;98404.81;5052190;28;20398;-75
2023/01/04 04:10:48;;;;;;;10.43;6.70;;;4.00;99.90;;;2.89;100.00;98399.84;5053133;28;20445;-76
2023/01/04 04:13:13;;;;;;;10.82;6.30;;;4.00;99.90;;;2.86;100.00;98398.38;5034052;28;20776;-75
2023/01/04 04:15:39;;;;;;;9.03;6.27;;;4.00;99.90;;;2.92;100.00;98395.09;5052836;28;20432;-75
2023/01/04 04:18:06;;;;;;;8.45;6.22;;;4.10;99.90;;;2.91;100.00;98393.47;5052890;28;20401;-75
2023/01/04 04:20:32;;;;;;;9.20;6.20;;;4.10;99.90;;;3.00;100.00;98391.59;5052888;28;20486;-75
2023/01/04 04:22:58;;;;;;;8.00;5.85;;;4.10;99.90;;;3.07;100.00;98384.66;5051823;28;20433;-75
2023/01/04 04:25:24;;;;;;;7.53;5.30;;;4.20;99.90;;;3.08;100.00;98392.28;5051975;28;20763;-76
2023/01/04 04:27:51;;;;;;;7.35;5.40;;;4.20;99.90;;;3.08;100.00;98383.66;5034033;28;20957;-75
2023/01/04 04:30:17;;;;;;;7.28;5.00;;;4.20;99.90;;;3.07;100.00;98385.47;5052559;28;20404;-76
2023/01/04 04:32:43;;;;;;;8.43;5.47;;;4.20;99.90;;;3.07;100.00;98388.09;5033459;28;20398;-75
2023/01/04 04:35:09;;;;;;;6.55;4.70;;;4.20;99.90;;;3.09;100.00;98377.41;5052322;28;20401;-75
2023/01/04 04:37:36;;;;;;;6.97;4.97;;;4.20;99.90;;;3.21;100.00;98383.84;5052308;28;20407;-76
2023/01/04 04:40:02;;;;;;;6.32;4.90;;;4.30;99.90;;;3.21;100.00;98385.66;5052495;28;20899;-75
2023/01/04 04:42:28;;;;;;;5.28;4.30;;;4.30;99.90;;;3.20;100.00;98386.63;5046517;22;20723;-75
2023/01/04 04:44:56;;;;;;;6.65;4.55;;;4.40;99.90;;;3.22;100.00;98385.47;5051923;28;20413;-75
2023/01/04 04:47:22;;;;;;;6.07;4.30;;;4.30;99.90;;;3.25;100.00;98379.06;5052366;28;20416;-75
2023/01/04 04:49:47;;;;;;;5.28;4.10;;;4.40;99.90;;;3.32;100.00;98375.53;5052242;28;20891;-75
2023/01/04 04:52:14;;;;;;;5.07;4.00;;;4.40;99.90;;;3.35;100.00;98369.13;5051524;28;20433;-75
2023/01/04 04:54:39;;;;;;;5.20;4.00;;;4.50;99.90;;;3.44;100.00;98371.50;5051992;28;20443;-75
2023/01/04 04:57:05;;;;;;;6.03;3.83;;;4.60;99.90;;;3.42;100.00;98359.56;5070758;28;20407;-75
2023/01/04 04:59:31;;;;;;;4.43;3.50;;;4.50;99.90;;;3.48;100.00;98349.19;5072004;28;20391;-75
2023/01/04 05:01:59;;;;;;;5.43;4.10;;;4.60;99.90;;;3.67;100.00;98349.63;5071227;28;20401;-75
2023/01/04 05:04:25;;;;;;;5.32;3.65;;;4.70;99.90;;;3.63;100.00;98359.63;5071650;28;20414;-76
2023/01/04 05:06:51;;;;;;;5.03;3.42;;;4.80;99.90;;;3.60;100.00;98359.19;5071805;28;20416;-75
2023/01/04 05:09:18;;;;;;;4.38;3.50;;;4.70;99.90;;;3.68;100.00;98348.63;5071892;28;20952;-75
2023/01/04 05:14:28;;;;;;;5.22;3.67;;;4.70;99.90;;;3.67;100.00;98344.38;5071505;28;20426;-76
2023/01/04 05:16:54;;;;;;;3.97;3.28;;;4.80;99.90;;;3.68;100.00;98362.53;5071778;28;20408;-75
2023/01/04 05:19:22;;;;;;;4.53;2.97;;;4.80;99.90;;;3.75;100.00;98366.03;5071844;28;20406;-75
2023/01/04 05:21:47;;;;;;;8.32;3.08;;;4.90;99.90;;;3.95;100.00;98361.00;5071259;28;20776;-76
2023/01/04 05:24:14;;;;;;;5.22;3.17;;;5.00;99.90;;;3.85;100.00;98357.88;5071211;28;20418;-76
2023/01/04 05:26:39;;;;;;;4.13;2.70;;;5.00;99.90;;;3.97;100.00;98361.66;5071553;28;20501;-75
2023/01/04 05:29:05;;;;;;;4.25;3.05;;;5.10;99.90;;;3.99;100.00;98359.63;5071575;28;20761;-76
2023/01/04 05:31:31;;;;;;;5.60;2.90;;;5.10;99.90;;;4.10;100.00;98360.97;5071041;28;20412;-75
2023/01/04 05:33:57;;;;;;;3.87;2.90;;;5.20;99.90;;;4.09;100.00;98362.78;5070954;28;20410;-75
2023/01/04 05:36:25;;;;;;;6.45;3.10;;;5.20;99.90;;;4.14;100.00;98354.34;5071030;28;20396;-75
2023/01/04 05:38:51;;;;;;;3.78;3.13;;;5.30;99.90;;;4.23;100.00;98351.44;5071192;28;20407;-74
2023/01/04 05:44:01;;;;;;;3.22;2.67;;;5.30;99.90;;;4.16;100.00;98354.97;5070667;28;20471;-75
2023/01/04 05:46:27;;;;;;;4.65;3.17;;;5.30;99.90;;;4.14;100.00;98346.50;5053153;28;20415;-75
2023/01/04 05:48:53;;;;;;;6.03;3.78;;;5.30;99.90;;;4.42;100.00;98350.00;5071271;28;20495;-74
2023/01/04 05:51:19;;;;;;;5.03;3.50;;;5.50;99.90;;;4.43;100.00;98350.81;5070505;28;20414;-75
2023/01/04 05:53:46;;;;;;;4.97;3.50;;;5.50;99.90;;;4.56;100.00;98351.75;5070572;28;20410;-75
2023/01/04 05:56:12;;;;;;;5.73;3.40;;;5.60;99.90;;;4.39;100.00;98347.75;5070932;28;20400;-75
2023/01/04 05:58:38;;;;;;;5.47;3.80;;;5.50;99.90;;;4.58;100.00;98335.81;5070989;28;20439;-74
2023/01/04 06:01:06;;;;;;;4.22;3.38;;;5.50;99.90;;;4.53;100.00;98330.31;5070934;28;20404;-75
2023/01/04 06:03:32;;;;;;;3.58;3.05;;;5.60;99.90;;;4.47;100.00;98331.09;5069823;28;20784;-74
2023/01/04 06:05:58;;;;;;;4.05;3.10;;;5.50;99.90;;;4.45;100.00;98330.44;5070853;28;20516;-75
2023/01/04 06:08:24;;;;;;;4.80;3.00;;;5.50;99.90;;;4.50;100.00;98328.91;5068818;28;20428;-74
2023/01/04 06:10:54;;;;;;;5.38;3.25;;;5.60;99.90;;;4.57;100.00;98324.53;5041363;28;20426;-74
2023/01/04 06:13:20;;;;;;;3.85;3.20;;;5.60;99.90;;;4.63;100.00;98326.38;5037280;28;20444;-75
2023/01/04 06:15:46;;;;;;;4.47;3.40;;;5.70;99.90;;;4.62;100.00;98324.75;5043487;28;20413;-75
2023/01/04 06:18:12;;;;;;;5.88;3.35;;;5.70;99.90;;;4.64;100.00;98324.56;5045546;28;20416;-75
2023/01/04 06:20:38;;;;;;;5.10;3.30;;;5.70;99.90;;;4.56;100.00;98314.22;5047765;28;20452;-73
2023/01/04 06:23:04;;;;;;;5.25;3.00;;;5.60;99.90;;;4.62;100.00;98319.50;5045238;28;20475;-73
2023/01/04 06:25:30;;;;;;;4.65;2.90;;;5.70;99.90;;;4.64;100.00;98324.56;5046352;28;20409;-74
2023/01/04 06:27:57;;;;;;;3.22;2.83;;;5.70;99.90;;;4.64;100.00;98321.97;5050254;28;20524;-74
2023/01/04 06:30:23;;;;;;;5.85;3.47;;;5.70;99.90;;;4.61;100.00;98317.88;5050481;28;20925;-74
2023/01/04 06:32:49;;;;;;;5.10;3.10;;;5.70;99.90;;;4.65;100.00;98319.16;5049452;28;20405;-73
2023/01/04 06:35:15;;;;;;;4.32;3.03;;;5.70;99.90;;;4.61;100.00;98319.69;5045213;28;20479;-74
2023/01/04 06:37:41;;;;;;;5.22;3.35;;;5.70;99.90;;;4.65;100.00;98324.38;5019787;28;20462;-73
2023/01/04 06:40:09;;;;;;;3.90;3.03;;;5.70;99.90;;;4.68;100.00;98321.38;5047377;28;20389;-73
2023/01/04 06:42:44;;;;;;;5.43;2.85;;;5.70;99.90;;;4.70;100.00;98321.19;5043952;28;20425;-76
2023/01/04 06:45:12;;;;;;;3.47;2.70;;;5.70;99.90;;;4.77;100.00;98321.22;5038512;28;20412;-77
2023/01/04 06:47:39;;;;;;;4.33;2.80;;;5.80;99.90;;;4.78;100.00;98328.09;5046611;28;20891;-78
2023/01/04 06:50:06;;;;;;;4.85;2.97;;;5.90;99.90;;;4.64;100.00;98321.97;5046606;28;20463;-76
2023/01/04 06:52:32;;;;;;;4.23;2.83;;;5.70;99.90;;;4.68;100.00;98324.00;5042073;28;20398;-76
2023/01/04 06:54:58;;;;;;;4.55;2.75;;;5.70;99.90;;;4.66;100.00;98319.97;5039997;28;20412;-76
2023/01/04 06:57:24;;;;;;;5.15;2.80;;;5.70;99.90;;;4.82;100.00;98324.91;5038264;28;20487;-76
2023/01/04 06:59:50;;;;;;;5.37;2.50;;;5.90;99.90;;;4.80;100.00;98308.56;5044414;28;20505;-75
2023/01/04 07:02:17;;;;;;;4.85;2.80;;;5.80;99.90;;;4.78;100.00;98318.41;5041992;28;20411;-75
2023/01/04 07:04:43;;;;;;;4.50;2.45;;;5.80;99.90;;;4.77;100.00;98316.78;5021340;28;20849;-76
2023/01/04 07:07:09;;;;;;;3.70;2.50;;;5.80;99.90;;;4.79;100.00;98311.38;5038506;28;20470;-76
2023/01/04 07:09:35;;;;;;;4.30;2.50;;;5.90;99.90;;;4.86;100.00;98314.84;5036890;28;20421;-76
2023/01/04 07:12:01;;;;;;;3.92;2.17;;;5.90;99.90;;;4.88;100.00;98312.84;5038536;28;20405;-76
2023/01/04 07:14:27;;;;;;;4.43;2.22;;;5.90;99.90;;;4.83;100.00;98312.59;5041602;28;20401;-76
2023/01/04 07:16:53;;;;;;;3.90;2.30;;;5.90;99.90;;;4.87;100.00;98301.53;5039796;28;20426;-77
2023/01/04 07:19:20;;;;;;;4.05;2.50;;;6.00;99.90;;;5.00;100.00;98312.13;5040522;28;20398;-76
2023/01/04 07:21:46;;;;;;;3.27;2.20;;;6.00;99.90;;;4.94;100.00;98309.44;5050921;28;20409;-76
2023/01/04 07:24:12;;;;;;;5.68;2.30;;;6.00;99.90;;;5.12;100.00;98303.69;5046218;28;20410;-75
2023/01/04 07:26:38;;;;;;;4.53;2.30;;;6.00;99.90;;;5.09;100.00;98307.53;5046745;28;20424;-76
2023/01/04 07:29:13;;;;;;;4.68;2.20;;;6.10;99.90;;;4.98;100.00;98306.25;5043177;28;20501;-76
2023/01/04 07:31:39;;;;;;;4.70;2.42;;;6.00;99.90;;;4.99;100.00;98299.19;5029740;28;20444;-76
2023/01/04 07:34:06;;;;;;;4.43;2.47;;;6.10;99.90;;;5.06;100.00;98316.59;5037189;28;20438;-75
2023/01/04 07:36:33;;;;;;;4.03;2.30;;;6.00;99.90;;;4.97;100.00;98309.06;5036168;28;20411;-74
2023/01/04 07:38:59;;;;;;;4.05;2.38;;;6.00;99.90;;;4.92;100.00;98306.19;5036109;28;20413;-75
2023/01/04 07:41:25;;;;;;;9.73;2.72;;;5.90;99.90;;;4.71;100.00;98291.34;5035758;28;20494;-73
2023/01/04 07:43:51;;;;;;;7.40;2.90;;;5.80;99.90;;;4.68;100.00;98289.91;5035630;28;20398;-75
2023/01/04 07:46:17;;;;;;;8.02;2.70;;;5.70;99.90;;;4.51;100.00;98283.31;5036152;28;20892;-76
2023/01/04 07:48:43;;;;;;;5.35;2.38;;;5.60;99.90;;;4.53;100.00;98281.31;5036259;28;20399;-76
2023/01/04 07:51:09;;;;;;;3.97;2.00;;;5.60;99.90;;;4.45;100.00;98281.47;5036148;28;20407;-76
2023/01/04 07:53:36;;;;;;;11.70;2.67;;;5.50;99.90;;;4.46;100.00;98269.16;5033780;28;20560;-77
2023/01/04 07:56:02;;;;;;;4.05;2.30;;;5.50;99.90;;;4.39;100.00;98276.16;5036215;28;20410;-76
2023/01/04 07:58:31;;;;;;;11.40;2.45;;;5.50;99.90;;;4.37;100.00;98265.88;5036101;28;20937;-76
2023/01/04 08:01:06;;;;;;;5.90;1.98;;;5.50;99.90;;;4.41;100.00;98275.00;5035976;28;20556;-76
2023/01/04 08:03:32;;;;;;;4.88;2.50;;;5.50;99.90;;;4.36;100.00;98271.31;5035045;28;20448;-75
2023/01/04 08:06:01;;;;;;;7.38;2.08;;;5.40;99.90;;;4.38;100.00;98264.88;5035964;28;20415;-77
2023/01/04 08:08:27;;;;;;;3.78;2.13;;;5.50;99.90;;;4.39;100.00;98266.50;5035979;28;20406;-77
2023/01/04 08:10:54;;;;;;;5.05;2.15;;;5.50;99.90;;;4.38;100.00;98264.06;5035986;28;20430;-77
2023/01/04 08:13:20;;;;;;;7.10;2.55;;;5.50;99.90;;;4.36;100.00;98263.47;5034922;28;20446;-77
2023/01/04 08:15:52;;;;;;;6.88;2.00;;;5.50;99.90;;;4.37;100.00;98260.63;5035972;28;20492;-77
2023/01/04 08:18:18;;;;;;;6.50;2.45;;;5.40;99.90;;;4.34;100.00;98254.97;5035870;28;20902;-78
2023/01/04 08:20:43;;;;;;;9.35;2.50;;;5.40;99.90;;;4.33;100.00;98243.66;5035983;28;20480;-76
2023/01/04 08:23:09;;;;;;;5.45;2.10;;;5.40;99.90;;;4.32;100.00;98249.91;5034843;28;20399;-77
2023/01/04 08:25:35;;;;;;;8.32;2.05;;;5.40;99.90;;;4.33;100.00;98248.91;5035902;28;20403;-76
2023/01/04 08:28:03;;;;;;;6.32;2.30;;;5.40;99.90;;;4.32;100.00;98246.47;5035584;28;20418;-75
2023/01/04 08:30:29;;;;;;;6.05;2.30;;;5.40;99.90;;;4.49;100.00;98243.38;5035893;28;20445;-76
2023/01/04 08:32:56;;;;;;;6.05;2.38;;;5.50;99.90;;;4.48;100.00;98259.31;5032166;28;21329;-75
2023/01/04 08:35:22;;;;;;;6.10;2.30;;;5.50;99.90;;;4.51;100.00;98245.81;5032584;28;20411;-77
2023/01/04 08:37:48;;;;;;;5.18;2.20;;;5.50;99.90;;;4.49;100.00;98242.59;5032343;28;20486;-76
2023/01/04 08:40:14;;;;;;;7.43;2.20;;;5.60;99.90;;;4.40;100.00;98241.91;5032416;28;20399;-75
2023/01/04 08:42:40;;;;;;;5.85;2.20;;;5.50;99.90;;;4.36;100.00;98240.66;5031498;28;20410;-75
2023/01/04 08:45:09;;;;;;;8.32;2.13;;;5.50;99.90;;;4.34;100.00;98239.25;5032447;28;20468;-74
2023/01/04 08:47:34;;;;;;;6.90;2.40;;;5.40;99.90;;;4.44;100.00;98237.88;5032338;28;20455;-75
2023/01/04 08:50:00;;;;;;;5.25;2.22;;;5.50;99.90;;;4.48;100.00;98225.22;5032468;28;20421;-75
2023/01/04 08:52:26;;;;;;;5.68;2.20;;;5.50;99.90;;;4.61;100.00;98225.31;5031665;28;20452;-75
2023/01/04 08:54:53;;;;;;;4.27;2.30;;;5.60;99.90;;;4.54;100.00;98225.25;5038256;28;20454;-75
2023/01/04 08:57:36;;;;;;;5.17;2.47;;;5.60;99.90;;;4.61;100.00;98217.44;5046196;28;21088;-75
2023/01/04 09:00:03;;;;;;;6.22;2.15;;;5.60;99.90;;;4.65;100.00;98209.00;5044360;28;20488;-76
2023/01/04 09:02:31;;;;;;;3.58;2.10;;;5.70;99.90;;;4.58;100.00;98213.41;5045643;28;20459;-75
2023/01/04 09:04:59;;;;;;;3.45;2.25;;;5.60;99.90;;;4.67;100.00;98227.97;5046977;28;20439;-76
2023/01/04 09:07:28;;;;;;;7.07;2.08;;;5.60;99.90;;;4.65;100.00;98223.94;5051924;28;20428;-74
2023/01/04 09:09:54;;;;;;;7.90;2.27;;;5.70;99.90;;;4.66;100.00;98221.09;5051950;28;20767;-74
2023/01/04 09:12:19;;;;;;;4.78;2.40;;;5.70;99.90;;;4.62;100.00;98222.50;5051276;28;20401;-76
2023/01/04 09:14:45;;;;;;;4.97;2.40;;;5.70;99.90;;;4.68;100.00;98232.22;5033865;28;20910;-77
2023/01/04 09:17:11;;;;;;;4.22;2.25;;;5.70;99.90;;;4.94;100.00;98242.06;5051823;28;20895;-75
2023/01/04 09:19:39;;;;;;;5.53;2.10;;;5.80;99.90;;;4.78;100.00;98231.06;5047772;28;20991;-76
2023/01/04 09:22:05;;;;;;;4.22;2.20;;;5.80;99.90;;;4.80;100.00;98232.50;5042498;28;20912;-76
2023/01/04 09:24:32;;;;;;;8.33;2.10;;;5.90;99.90;;;4.95;100.00;98225.31;5045926;28;20426;-77
2023/01/04 09:26:58;;;;;;;3.58;1.98;;;5.90;99.90;;;4.90;100.00;98221.63;5051426;28;20440;-77
2023/01/04 09:29:26;;;;;;;7.15;2.30;;;5.90;99.90;;;4.99;100.00;98230.97;5051609;28;20427;-79
2023/01/04 09:31:52;;;;;;;4.70;2.10;;;6.00;99.90;;;5.17;100.00;98231.25;5050992;28;20799;-76
2023/01/04 09:34:18;;;;;;;4.03;2.10;;;6.10;99.90;;;5.09;100.00;98241.91;5051043;28;20505;-77
2023/01/04 09:36:47;;;;;;;2.90;2.05;;;6.10;99.90;;;5.12;100.00;98238.06;5051503;28;20394;-77
2023/01/04 09:39:14;;;;;;;2.83;1.80;;;6.00;99.90;;;5.29;100.00;98244.63;5050055;28;20837;-78
2023/01/04 09:41:49;;;;;;;4.32;2.13;;;6.10;99.90;;;5.33;100.00;98240.63;5050960;28;20433;-76
2023/01/04 09:44:27;;;;;;;5.82;2.10;;;6.30;99.90;;;5.30;100.00;98247.06;5050050;28;20401;-78
2023/01/04 09:46:58;;;;;;;4.18;2.20;;;6.30;99.90;;;5.20;100.00;98243.16;5051230;28;20497;-77
2023/01/04 09:49:31;;;;;;;5.53;2.00;;;6.20;99.90;;;5.15;100.00;98241.13;5049204;28;21090;-76
2023/01/04 09:52:04;;;;;;;4.60;1.90;;;6.10;99.90;;;5.17;100.00;98238.31;5050242;28;20401;-76
2023/01/04 09:54:42;;;;;;;2.88;2.10;;;6.20;99.90;;;5.21;100.00;98240.34;5049973;28;20424;-77
2023/01/04 09:57:20;;;;;;;2.73;1.90;;;6.10;99.90;;;5.31;100.00;98240.00;5051048;28;20398;-76
2023/01/04 09:59:50;;;;;;;4.40;1.80;;;6.30;99.90;;;5.26;100.00;98245.03;5050916;28;20398;-77
2023/01/04 10:02:24;;;;;;;3.30;1.70;;;6.30;99.90;;;5.35;100.00;98228.06;5050565;28;20528;-76
2023/01/04 10:04:51;;;;;;;2.80;1.70;;;6.30;99.90;;;5.37;100.00;98218.19;5050567;28;20405;-74
2023/01/04 10:07:26;;;;;;;4.50;2.00;;;6.30;99.90;;;5.34;100.00;98213.34;5050673;28;20417;-76
2023/01/04 10:09:52;;;;;;;5.05;1.70;;;6.30;99.90;;;5.47;100.00;98216.00;5050639;28;20836;-76
2023/01/04 10:12:36;;;;;;;6.10;1.93;;;6.40;99.90;;;5.46;100.00;98214.41;5050030;28;20405;-76
2023/01/04 10:15:21;;;;;;;3.40;1.60;;;6.50;99.90;;;5.50;100.00;98212.16;5050633;28;20887;-76
2023/01/04 10:18:14;;;;;;;3.70;1.70;;;6.40;99.90;;;5.47;100.00;98212.59;5050895;28;20398;-77
2023/01/04 10:21:06;;;;;;;4.00;1.73;;;6.50;99.90;;;5.52;100.00;98203.09;5050624;28;20446;-76
2023/01/04 10:23:50;;;;;;;3.75;2.03;;;6.50;99.90;;;5.56;100.00;98196.44;5049565;28;20409;-76
2023/01/04 10:26:22;;;;;;;4.25;1.60;;;6.50;99.90;;;5.62;100.00;98189.59;5050312;28;20473;-76
2023/01/04 10:29:16;;;;;;;4.45;1.67;;;6.50;99.90;;;5.51;100.00;98201.47;5050483;28;20413;-77
2023/01/04 10:31:48;;;;;;;1.85;1.40;;;6.50;99.90;;;5.62;100.00;98200.91;5049820;28;20505;-77
2023/01/04 10:34:23;;;;;;;2.22;1.63;;;6.50;99.90;;;5.79;100.00;98191.63;5049736;28;20394;-76
2023/01/04 10:36:55;;;;;;;4.03;1.70;;;6.70;99.90;;;5.60;100.00;98181.09;5049983;28;20393;-76
2023/01/04 10:39:27;;;;;;;5.20;1.55;;;6.60;99.90;;;5.56;100.00;98180.69;5050373;28;20913;-78
2023/01/04 10:41:57;;;;;;;4.65;1.67;;;6.50;99.90;;;5.67;100.00;98187.97;5049625;28;20492;-76
2023/01/04 10:44:31;;;;;;;3.40;1.60;;;6.60;99.90;;;5.73;100.00;98184.53;5077628;22;20428;-77
2023/01/04 10:47:08;;;;;;;2.97;1.67;;;6.70;99.90;;;5.76;100.00;98176.28;5069818;28;20411;-75
2023/01/04 10:49:42;;;;;;;5.37;2.63;;;6.70;99.90;;;5.77;100.00;98159.50;5070188;28;20675;-76
2023/01/04 10:52:15;;;;;;;3.10;1.80;;;6.70;99.90;;;5.84;100.00;98176.06;5069843;28;20549;-75
2023/01/04 10:54:51;;;;;;;4.28;1.83;;;6.80;99.90;;;5.90;100.00;98165.78;5069117;28;20433;-76
2023/01/04 10:57:24;;;;;;;2.63;1.90;;;6.90;99.90;;;5.93;100.00;98165.41;5070031;28;20873;-76
2023/01/04 10:59:55;;;;;;;1.92;1.70;;;6.80;99.90;;;5.93;100.00;98155.69;5070087;28;20396;-76
2023/01/04 11:02:31;;;;;;;3.85;1.70;;;6.90;99.90;;;5.91;100.00;98177.94;5069358;28;20479;-76
2023/01/04 11:05:08;;;;;;;4.38;1.70;;;6.90;99.90;;;5.90;100.00;98171.03;5069287;28;20399;-76
2023/01/04 11:07:43;;;;;;;2.28;1.65;;;6.90;99.90;;;5.92;100.00;98148.81;5069879;28;20827;-76
2023/01/04 11:10:18;;;;;;;4.70;1.60;;;6.90;99.90;;;6.18;100.00;98169.81;5069887;28;20392;-76
2023/01/04 11:12:44;;;;;;;6.07;1.75;;;7.10;99.90;;;6.18;100.00;98156.69;5068804;28;20866;-76
2023/01/04 11:15:11;;;;;;;5.47;1.83;;;7.10;99.90;;;6.13;100.00;98160.94;5069839;28;20452;-76
2023/01/04 11:17:37;;;;;;;5.95;1.52;;;7.10;99.90;;;6.14;100.00;98152.03;5069789;28;20414;-76
2023/01/04 11:20:04;;;;;;;3.63;1.70;;;7.10;99.90;;;6.25;100.00;98150.59;5069675;28;20404;-76
2023/01/04 11:22:38;;;;;;;4.32;1.50;;;7.20;99.90;;;6.11;100.00;98147.19;5069034;28;20403;-76